Latest Weather Observations for Mount Crawford

IDS60901

Issued at 3:45 pm CST Sunday 31 August 2014 (issued every 10 minutes, with the page automatically refreshed every 10 minutes)

About weather observations | Map of Adelaide area stations | Latest observations for Adelaide area | Other Formats
Station Details ID: 023878 Name: MT CRAWFORD AWS Lat: -34.73 Lon: 138.93 Height: 525.0 m
Data from the previous 72 hours. | See also: Recent months at Mount Crawford
Date/Time
CST
Tmp

°C
App
Tmp
°C
Dew
Point
°C
Rel
Hum
%
Delta-T

°C
Wind Press
QNH
hPa
Press
MSL
hPa
Rain
since
9 am
mm
Dir
 
Spd
km/h
Gust
km/h
Spd
kts
Gust
kts
31/03:30pm 17.1 11.6 4.1 42 6.3 N 22 35 12 19 1011.6 1011.8 0.0
31/03:00pm 16.9 11.5 4.3 43 6.1 N 22 33 12 18 1012.0 1012.2 0.0
31/02:30pm 17.0 10.7 3.7 41 6.4 N 26 41 14 22 1012.6 1012.8 0.0
31/02:00pm 17.6 12.5 3.9 40 6.6 NNW 20 32 11 17 1012.8 1013.1 0.0
31/01:30pm 17.3 10.9 3.2 39 6.7 NW 26 43 14 23 1013.6 1013.8 0.0
31/01:00pm 17.7 11.7 3.2 38 6.9 N 24 28 13 15 1013.8 1014.0 0.0
31/12:30pm 17.9 11.0 2.6 36 7.2 NW 28 41 15 22 1014.4 1014.7 0.0
31/12:00pm 17.4 10.7 3.7 40 6.6 NW 28 43 15 23 1014.9 1015.2 0.0
31/11:36am 16.7 10.0 3.7 42 6.2 NW 28 46 15 25 1015.2 1015.4 0.0
31/11:30am 17.1 10.4 3.4 40 6.5 NW 28 41 15 22 1015.1 1015.3 0.0
31/11:18am 16.6 9.6 1.9 37 6.8 NW 28 46 15 25 1015.1 1015.3 0.0
31/11:00am 16.2 8.9 2.6 40 6.3 NW 30 44 16 24 1015.5 1015.7 0.0
31/10:30am 15.4 7.7 0.0 35 6.7 NW 30 46 16 25 1016.0 1016.2 0.0
31/10:00am 15.0 7.4 0.4 37 6.4 NNW 30 41 16 22 1015.8 1016.0 0.0
31/09:30am 15.2 7.5 0.2 36 6.6 NNW 30 43 16 23 1015.9 1016.1 0.0
31/09:00am 14.5 7.8 -0.8 35 6.5 NNW 24 35 13 19 1016.2 1016.5 0.0
31/08:30am 14.6 7.6 -0.7 35 6.5 NNW 26 35 14 19 1016.2 1016.5 0.0
31/08:00am 14.5 7.5 -0.4 36 6.4 NNW 26 37 14 20 1016.3 1016.6 0.0
31/07:30am 14.2 7.5 -1.4 34 6.5 NNW 24 32 13 17 1016.2 1016.5 0.0
31/07:00am 14.5 7.4 -1.6 33 6.7 NNW 26 37 14 20 1016.4 1016.7 0.0
31/06:30am 14.1 7.3 -1.5 34 6.5 NNW 24 35 13 19 1016.2 1016.5 0.0
31/06:00am 14.1 7.3 -1.5 34 6.5 NNW 24 39 13 21 1015.9 1016.1 0.0
31/05:30am 14.3 6.8 -1.7 33 6.7 NNW 28 39 15 21 1015.9 1016.1 0.0
31/05:00am 14.4 7.3 -1.6 33 6.7 N 26 41 14 22 1015.8 1016.0 0.0
31/04:30am 14.4 7.3 -1.6 33 6.7 N 26 35 14 19 1015.8 1016.0 0.0
31/04:00am 14.3 7.5 -1.7 33 6.7 N 24 33 13 18 1016.0 1016.2 0.0
31/03:30am 13.8 7.1 -1.0 36 6.2 N 24 32 13 17 1016.1 1016.4 0.0
31/03:00am 14.3 8.3 -1.3 34 6.6 NNW 20 28 11 15 1016.3 1016.6 0.0
31/02:30am 14.6 8.7 -1.1 34 6.6 N 20 28 11 15 1016.7 1017.0 0.0
31/02:00am 14.6 8.3 -0.7 35 6.5 N 22 30 12 16 1017.1 1017.3 0.0
31/01:30am 14.9 8.7 -0.4 35 6.6 N 22 30 12 16 1017.4 1017.6 0.0
31/01:00am 15.3 9.6 0.3 36 6.6 N 20 26 11 14 1017.6 1017.8 0.0
31/12:30am 15.4 9.7 0.8 37 6.5 N 20 24 11 13 1017.9 1018.2 0.0
31/12:00am 15.6 10.2 1.0 37 6.5 N 19 22 10 12 1018.2 1018.5 0.0
 
Date/Time
CST
Tmp

°C
App
Tmp
°C
Dew
Point
°C
Rel
Hum
%
Delta-T

°C
Wind Press
QNH
hPa
Press
MSL
hPa
Rain
since
9 am
mm
Dir
 
Spd
km/h
Gust
km/h
Spd
kts
Gust
kts
30/11:30pm 15.3 10.0 1.8 40 6.1 N 19 22 10 12 1018.3 1018.6 0.0
30/11:00pm 15.4 10.5 1.9 40 6.1 N 17 22 9 12 1018.7 1019.0 0.0
30/10:30pm 15.1 10.2 2.3 42 5.8 N 17 20 9 11 1019.0 1019.3 0.0
30/10:00pm 16.0 11.5 2.4 40 6.3 N 15 19 8 10 1019.3 1019.6 0.0
30/09:30pm 15.6 11.6 2.7 42 6.0 N 13 15 7 8 1019.6 1019.9 0.0
30/09:00pm 16.1 12.1 2.9 41 6.1 N 13 15 7 8 1019.8 1020.1 0.0
30/08:30pm 16.4 12.8 2.8 40 6.3 N 11 13 6 7 1019.9 1020.2 0.0
30/08:00pm 16.2 12.6 2.9 41 6.2 N 11 11 6 6 1020.0 1020.3 0.0
30/07:30pm 16.5 12.9 3.2 41 6.3 NNW 11 13 6 7 1020.0 1020.3 0.0
30/07:00pm 16.3 12.5 4.0 44 5.9 NW 13 17 7 9 1020.0 1020.3 0.0
30/06:30pm 16.5 12.1 4.5 45 5.8 WNW 17 20 9 11 1020.0 1020.3 0.0
30/06:00pm 16.8 12.8 4.8 45 5.8 WNW 15 17 8 9 1019.9 1020.2 0.0
30/05:30pm 17.1 13.4 4.4 43 6.1 NW 13 17 7 9 1019.7 1020.0 0.0
30/05:00pm 18.1 14.1 4.7 41 6.6 NW 15 20 8 11 1019.6 1019.9 0.0
30/04:30pm 18.6 14.8 5.8 43 6.4 NW 15 19 8 10 1019.9 1020.2 0.0
30/04:00pm 18.9 14.0 5.0 40 6.9 NW 20 26 11 14 1020.1 1020.4 0.0
30/03:30pm 18.7 14.3 4.8 40 6.9 N 17 26 9 14 1020.1 1020.4 0.0
30/03:00pm 19.2 13.8 4.6 38 7.2 N 22 30 12 16 1020.3 1020.6 0.0
30/02:30pm 19.2 14.1 4.2 37 7.3 NW 20 33 11 18 1020.5 1020.8 0.0
30/02:00pm 19.1 12.8 3.7 36 7.5 N 26 35 14 19 1020.7 1021.0 0.0
30/01:30pm 18.4 13.5 4.9 41 6.7 NNW 20 26 11 14 1021.3 1021.6 0.0
30/01:00pm 18.9 13.3 3.5 36 7.4 NW 22 32 12 17 1021.7 1022.0 0.0
30/12:30pm 19.2 13.6 3.4 35 7.6 NNW 22 35 12 19 1022.2 1022.5 0.0
30/12:00pm 18.9 13.7 3.5 36 7.4 NNW 20 30 11 16 1022.7 1023.1 0.0
30/11:30am 19.0 14.5 6.1 43 6.5 NNW 19 28 10 15 1023.0 1023.4 0.0
30/11:00am 18.7 14.7 6.5 45 6.2 N 17 22 9 12 1023.4 1023.7 0.0
30/10:30am 18.5 13.7 5.7 43 6.4 N 20 28 11 15 1023.7 1024.0 0.0
30/10:00am 18.6 13.7 4.0 38 7.1 N 19 28 10 15 1023.9 1024.2 0.0
30/09:30am 18.1 14.2 5.3 43 6.3 NNE 15 22 8 12 1023.9 1024.2 0.0
30/09:00am 17.5 13.4 6.4 48 5.6 NE 17 22 9 12 1024.1 1024.4 0.0
30/08:30am 16.5 12.3 5.8 49 5.3 NE 17 22 9 12 1024.1 1024.4 0.0
30/08:00am 15.2 10.9 5.1 51 4.9 NE 17 20 9 11 1024.0 1024.3 0.0
30/07:30am 14.0 9.5 4.0 51 4.7 NE 17 22 9 12 1023.9 1024.2 0.0
30/07:00am 13.2 7.8 2.4 48 4.9 ENE 20 24 11 13 1023.8 1024.1 0.0
30/06:30am 12.6 7.3 1.9 48 4.7 ENE 19 22 10 12 1023.8 1024.1 0.0
30/06:00am 12.7 7.3 2.3 49 4.6 ENE 20 24 11 13 1023.8 1024.1 0.0
30/05:30am 12.6 7.2 2.7 51 4.5 ENE 20 24 11 13 1023.8 1024.1 0.0
30/05:00am 12.9 6.8 3.0 51 4.5 ENE 24 32 13 17 1023.8 1024.1 0.0
30/04:30am 13.3 7.0 3.7 52 4.4 ENE 26 30 14 16 1023.7 1024.0 0.0
30/04:00am 13.2 7.5 4.9 57 4.0 ENE 24 30 13 16 1023.6 1023.9 0.0
30/03:30am 13.3 7.5 4.5 55 4.1 ENE 24 30 13 16 1023.6 1023.9 0.0
30/03:00am 12.8 7.0 4.5 57 3.9 E 24 30 13 16 1023.7 1024.0 0.0
30/02:30am 13.0 7.3 4.9 58 3.8 E 24 28 13 15 1024.0 1024.3 0.0
30/02:00am 13.5 8.3 5.4 58 3.9 E 22 28 12 15 1024.3 1024.7 0.0
30/01:30am 13.4 8.1 5.1 57 4.0 E 22 26 12 14 1024.7 1025.1 0.0
30/01:00am 13.2 8.1 4.1 54 4.3 E 20 22 11 12 1024.9 1025.3 0.0
30/12:30am 13.3 8.3 3.4 51 4.5 E 19 22 10 12 1024.9 1025.3 0.0
30/12:00am 14.1 8.5 3.3 48 5.0 E 22 26 12 14 1025.2 1025.5 0.0
 
Date/Time
CST
Tmp

°C
App
Tmp
°C
Dew
Point
°C
Rel
Hum
%
Delta-T

°C
Wind Press
QNH
hPa
Press
MSL
hPa
Rain
since
9 am
mm
Dir
 
Spd
km/h
Gust
km/h
Spd
kts
Gust
kts
29/11:30pm 13.7 8.1 3.5 50 4.7 E 22 26 12 14 1025.3 1025.6 0.0
29/11:00pm 14.2 9.3 4.2 51 4.7 E 19 22 10 12 1025.5 1025.8 0.0
29/10:30pm 14.8 9.8 4.5 50 4.9 E 20 22 11 12 1025.8 1026.2 0.0
29/10:00pm 14.1 9.3 4.7 53 4.5 ESE 19 22 10 12 1025.9 1026.3 0.0
29/09:30pm 14.6 10.2 4.9 52 4.6 SE 17 20 9 11 1026.1 1026.5 0.0
29/09:00pm 14.7 10.7 4.7 51 4.8 ESE 15 19 8 10 1026.1 1026.5 0.0
29/08:30pm 16.3 11.8 4.0 44 5.9 E 17 20 9 11 1025.9 1026.3 0.0
29/08:00pm 16.6 12.5 4.6 45 5.8 E 15 17 8 9 1025.8 1026.2 0.0
29/07:30pm 16.4 12.9 5.4 48 5.4 E 13 15 7 8 1025.8 1026.2 0.0
29/07:00pm 16.7 13.2 5.3 47 5.6 E 13 15 7 8 1025.8 1026.2 0.0
29/06:30pm 16.6 13.5 5.6 48 5.4 ENE 11 13 6 7 1025.7 1026.0 0.0
29/06:00pm 17.1 14.4 5.7 47 5.6 NE 9 11 5 6 1025.7 1026.0 0.0
29/05:30pm 17.7 14.6 5.6 45 6.0 NE 11 13 6 7 1025.7 1026.0 0.0
29/05:00pm 18.4 14.9 5.6 43 6.4 NE 13 17 7 9 1025.7 1026.0 0.0
29/04:30pm 19.3 16.3 3.9 36 7.5 NNE 9 13 5 7 1025.7 1026.0 0.0
29/04:00pm 19.7 17.5 6.4 42 6.8 NNE 7 15 4 8 1025.7 1026.0 0.0
29/03:30pm 19.7 16.8 6.4 42 6.8 N 11 17 6 9 1025.8 1026.2 0.0
29/03:00pm 20.0 17.5 6.7 42 6.9 NNE 9 15 5 8 1026.0 1026.4 0.0
29/02:30pm 20.2 17.5 5.8 39 7.3 NNE 9 17 5 9 1026.2 1026.6 0.0
29/02:00pm 20.1 17.8 7.5 44 6.6 NE 9 19 5 10 1026.5 1026.9 0.0
29/01:30pm 20.1 17.6 4.6 36 7.7 N 7 17 4 9 1026.8 1027.2 0.0
29/01:00pm 19.6 16.7 4.9 38 7.3 ENE 9 13 5 7 1027.0 1027.4 0.0
29/12:30pm 19.8 17.1 3.9 35 7.7 N 7 13 4 7 1027.6 1028.0 0.0
29/12:00pm 19.5 16.9 6.3 42 6.7 NW 9 13 5 7 1028.2 1028.6 0.0
29/11:30am 19.1 16.4 5.6 41 6.8 WNW 9 13 5 7 1028.5 1028.9 0.0
29/11:00am 18.6 15.7 6.4 45 6.2 N 11 15 6 8 1028.6 1029.0 0.0
29/10:30am 18.3 15.4 6.5 46 6.0 NNE 11 13 6 7 1028.7 1029.1 0.0
29/10:00am 18.0 15.8 8.0 52 5.2 NE 9 13 5 7 1028.7 1029.1 0.0
29/09:30am 16.4 13.3 5.7 49 5.3 NE 11 15 6 8 1028.8 1029.2 0.0
29/09:00am 15.8 13.0 5.1 49 5.2 ENE 9 15 5 8 1028.9 1029.3 0.0
29/08:30am 14.7 11.2 5.5 54 4.5 ENE 13 15 7 8 1028.8 1029.2 0.0
29/08:00am 13.5 8.9 5.4 58 3.9 ENE 19 24 10 13 1028.8 1029.2 0.0
29/07:30am 12.7 8.5 5.6 62 3.4 ENE 17 22 9 12 1028.7 1029.1 0.0
29/07:00am 11.8 7.9 5.4 65 3.0 ENE 15 20 8 11 1028.5 1028.9 0.0
29/06:30am 11.4 6.7 5.1 65 3.0 E 19 20 10 11 1028.4 1028.8 0.0
29/06:00am 11.1 7.1 5.0 66 2.8 E 15 19 8 10 1028.1 1028.5 0.0
29/05:30am 11.5 7.5 4.9 64 3.1 E 15 19 8 10 1027.9 1028.3 0.0
29/05:00am 11.9 8.3 4.9 62 3.3 E 13 17 7 9 1027.8 1028.2 0.0
29/04:30am 12.0 7.9 4.5 60 3.5 E 15 19 8 10 1027.8 1028.2 0.0
29/04:00am 12.5 8.8 4.5 58 3.8 E 13 17 7 9 1027.7 1028.1 0.0
29/03:30am 12.7 9.4 4.7 58 3.8 E 11 15 6 8 1027.7 1028.1 0.0
29/03:00am 12.5 8.9 5.2 61 3.5 E 13 17 7 9 1027.8 1028.2 0.0
29/02:30am 12.6 8.7 5.3 61 3.5 ESE 15 17 8 9 1028.0 1028.4 0.0
29/02:00am 12.7 8.5 5.8 63 3.3 ESE 17 19 9 10 1028.2 1028.6 0.0
29/01:30am 12.2 8.1 6.3 67 2.9 ESE 17 20 9 11 1028.4 1028.8 0.0
29/01:00am 11.7 7.7 6.6 71 2.5 ESE 17 19 9 10 1028.5 1028.9 0.0
29/12:30am 11.8 7.4 6.7 71 2.5 SE 19 22 10 12 1028.5 1028.9 0.0
29/12:00am 12.0 7.5 6.9 71 2.5 SE 20 24 11 13 1028.6 1029.0 0.0
 
Date/Time
CST
Tmp

°C
App
Tmp
°C
Dew
Point
°C
Rel
Hum
%
Delta-T

°C
Wind Press
QNH
hPa
Press
MSL
hPa
Rain
since
9 am
mm
Dir
 
Spd
km/h
Gust
km/h
Spd
kts
Gust
kts
28/11:30pm 12.3 7.8 7.0 70 2.6 SE 20 24 11 13 1028.6 1029.0 0.0
28/11:00pm 12.7 8.3 7.4 70 2.7 SE 20 26 11 14 1028.6 1029.0 0.0
28/10:30pm 12.8 8.6 7.5 70 2.6 SE 19 22 10 12 1028.7 1029.1 0.0
28/10:00pm 13.2 9.4 7.4 68 2.9 SE 17 20 9 11 1028.7 1029.1 0.0
28/09:30pm 14.2 10.8 7.5 64 3.4 SE 15 19 8 10 1028.7 1029.1 0.0
28/09:00pm 15.0 11.3 7.8 62 3.7 SSE 17 19 9 10 1028.7 1029.1 0.0
28/08:30pm 14.5 11.0 7.1 61 3.7 SSE 15 17 8 9 1028.6 1029.0 0.0
28/08:00pm 15.9 14.0 6.6 54 4.7 SE 6 9 3 5 1028.4 1028.8 0.0
28/07:30pm 15.6 14.9 7.1 57 4.3 CALM 0 0 0 0 1028.0 1028.4 0.0
28/07:00pm 15.6 14.9 7.1 57 4.3 CALM 0 0 0 0 1027.8 1028.2 0.0
28/06:30pm 15.9 14.3 6.3 53 4.8 W 4 6 2 3 1027.8 1028.2 0.0
28/06:00pm 16.2 14.2 7.2 55 4.6 W 7 7 4 4 1027.8 1028.2 0.0
28/05:30pm 17.3 15.1 7.9 54 4.9 W 9 11 5 6 1027.7 1028.1 0.0
28/05:00pm 18.5 16.8 8.2 51 5.4 NNW 7 11 4 6 1027.6 1028.0 0.0
28/04:30pm 18.3 16.1 8.0 51 5.4 NNE 9 13 5 7 1027.6 1028.0 0.0
28/04:00pm 19.2 16.7 6.7 44 6.4 NNW 9 11 5 6 1027.5 1027.9 0.0

Latest Capital City Observations: Canberra | Sydney | Melbourne | Brisbane | Adelaide | Perth | Hobart | Darwin

Other Formats:

Comma delimited format used in spreadsheet applications
http://www.bom.gov.au/fwo/IDS60901/IDS60901.94678.axf

JavaScript Object Notation format (JSON) in row-major order
http://www.bom.gov.au/fwo/IDS60901/IDS60901.94678.json